Terminal Aerodrome Forecast
Issued by NWS

Current Version | Previous Version | Text Only | Print | Product List | Glossary On
Versions: 1 2 3 4 5 6 7 8 9 10 11 12 13 14 15 16 17 18 19 20 21 22 23 24 25 26 27 28 29
000
FTUS42 KJAX 020307 AAB
TAFCRG
TAF AMD
KCRG 020307Z 0203/0224 02003KT 1SM -DZ BR OVC002
     FM020600 01003KT 1/2SM -DZ FG OVC001
     FM021300 05002KT 1SM BR OVC003
     FM021430 VRB02KT 3SM BR BKN005
     FM021600 VRB03KT P6SM BKN018
     FM021900 VRB03KT P6SM BKN035=

USA.gov is the U.S. government's official web portal to all federal, state and local government web resources and services.